createdAt,value
2018-12-31T00:00:17.977Z,26.25
2018-12-31T00:00:49.126Z,26.17
2018-12-31T00:01:20.272Z,24.35
2018-12-31T00:01:51.418Z,25.12
2018-12-31T00:02:22.610Z,26.12
2018-12-31T00:02:53.761Z,26.25
2018-12-31T00:03:24.918Z,27.35
2018-12-31T00:03:56.113Z,26.95
2018-12-31T00:04:27.289Z,24.82
2018-12-31T00:04:58.411Z,26.05
2018-12-31T00:05:29.570Z,26.55
2018-12-31T00:06:00.790Z,24.10
2018-12-31T00:06:31.981Z,26.17
2018-12-31T00:07:03.138Z,27.00
2018-12-31T00:07:34.352Z,26.90
2018-12-31T00:08:05.518Z,27.35
2018-12-31T00:08:36.665Z,25.52
2018-12-31T00:09:07.824Z,25.25
2018-12-31T00:09:39.008Z,27.10
2018-12-31T00:10:10.159Z,24.40
2018-12-31T00:10:41.354Z,26.25
2018-12-31T00:11:12.507Z,27.52
2018-12-31T00:11:43.658Z,28.62
2018-12-31T00:12:14.807Z,27.80
2018-12-31T00:12:45.959Z,27.07
2018-12-31T00:13:17.115Z,26.40
2018-12-31T00:13:48.252Z,27.40
2018-12-31T00:14:19.405Z,26.50
2018-12-31T00:14:50.557Z,25.97
2018-12-31T00:15:21.761Z,26.10
2018-12-31T00:15:52.916Z,26.12
2018-12-31T00:16:24.059Z,24.45
2018-12-31T00:16:55.214Z,26.97
2018-12-31T00:17:26.366Z,24.60
2018-12-31T00:17:57.541Z,28.15
2018-12-31T00:18:28.694Z,28.02
2018-12-31T00:18:59.851Z,25.92
2018-12-31T00:19:31.023Z,25.72
2018-12-31T00:20:03.135Z,26.77
2018-12-31T00:20:34.333Z,26.55
2018-12-31T00:21:05.488Z,26.93
2018-12-31T00:21:36.644Z,25.75
2018-12-31T00:22:07.800Z,26.27
2018-12-31T00:22:38.956Z,24.85
2018-12-31T00:23:10.111Z,27.27
2018-12-31T00:23:41.262Z,28.80
2018-12-31T00:24:12.432Z,25.10
2018-12-31T00:24:43.586Z,29.72
2018-12-31T00:25:14.767Z,28.20
2018-12-31T00:25:45.932Z,26.93
2018-12-31T00:26:17.084Z,27.25
2018-12-31T00:26:48.245Z,27.45
2018-12-31T00:27:19.392Z,25.10
2018-12-31T00:27:50.538Z,26.93
2018-12-31T00:28:21.698Z,29.65
2018-12-31T00:28:52.969Z,29.05
2018-12-31T00:29:24.126Z,27.75
2018-12-31T00:29:55.268Z,27.58
2018-12-31T00:30:26.419Z,25.35
2018-12-31T00:30:57.610Z,26.68
2018-12-31T00:31:28.764Z,28.27
2018-12-31T00:31:59.919Z,28.20
2018-12-31T00:32:31.079Z,25.65
2018-12-31T00:33:02.230Z,25.35
2018-12-31T00:33:33.435Z,25.80
2018-12-31T00:34:04.584Z,25.60
2018-12-31T00:34:35.737Z,26.45
2018-12-31T00:35:06.887Z,28.38
2018-12-31T00:35:38.038Z,26.73
2018-12-31T00:36:09.186Z,27.15
2018-12-31T00:36:40.347Z,28.00
2018-12-31T00:37:11.501Z,29.00
2018-12-31T00:37:42.689Z,26.12
2018-12-31T00:38:13.837Z,28.95
2018-12-31T00:38:45.001Z,28.02
2018-12-31T00:39:16.145Z,27.30
2018-12-31T00:39:47.301Z,26.60
2018-12-31T00:40:18.457Z,25.92
2018-12-31T00:40:49.646Z,26.70
2018-12-31T00:41:20.802Z,28.83
2018-12-31T00:41:51.959Z,27.93
2018-12-31T00:42:23.109Z,27.17
2018-12-31T00:42:59.038Z,28.17
2018-12-31T00:43:27.159Z,26.75
2018-12-31T00:43:58.317Z,28.47
2018-12-31T00:44:29.469Z,27.45
2018-12-31T00:45:00.624Z,27.60
2018-12-31T00:45:31.800Z,28.17
2018-12-31T00:46:02.990Z,29.15
2018-12-31T00:46:34.145Z,27.05
2018-12-31T00:47:05.316Z,27.90
2018-12-31T00:47:36.476Z,27.70
2018-12-31T00:48:07.633Z,26.48
2018-12-31T00:48:38.790Z,29.50
2018-12-31T00:49:09.934Z,27.37
2018-12-31T00:49:41.088Z,24.12
2018-12-31T00:50:12.259Z,27.90
2018-12-31T00:50:43.432Z,28.47
2018-12-31T00:51:14.580Z,27.62
2018-12-31T00:51:45.730Z,28.10
2018-12-31T00:52:16.884Z,28.75
2018-12-31T00:52:48.045Z,27.20
2018-12-31T00:53:19.204Z,27.20
2018-12-31T00:53:50.403Z,27.75
2018-12-31T00:54:21.553Z,28.42
2018-12-31T00:54:52.713Z,27.20
2018-12-31T00:55:23.864Z,28.70
2018-12-31T00:55:55.022Z,29.85
2018-12-31T00:56:26.176Z,29.70
2018-12-31T00:56:57.333Z,30.12
2018-12-31T00:57:28.505Z,27.48
2018-12-31T00:57:59.672Z,28.47
2018-12-31T00:58:30.838Z,29.48
2018-12-31T00:59:02.042Z,29.75
2018-12-31T00:59:33.198Z,28.42
2018-12-31T01:00:04.346Z,28.90
2018-12-31T01:00:35.498Z,28.80
2018-12-31T01:01:06.654Z,27.80
2018-12-31T01:01:37.815Z,29.35
2018-12-31T01:02:08.967Z,30.43
2018-12-31T01:02:40.136Z,31.35
2018-12-31T01:03:11.287Z,28.85
2018-12-31T01:03:42.436Z,29.70
2018-12-31T01:04:13.639Z,28.77
2018-12-31T01:04:44.798Z,28.15
2018-12-31T01:05:15.954Z,29.05
2018-12-31T01:05:47.109Z,28.60
2018-12-31T01:06:18.261Z,29.95
2018-12-31T01:06:49.428Z,28.92
2018-12-31T01:07:20.597Z,28.98
2018-12-31T01:07:52.629Z,27.37
2018-12-31T01:08:23.814Z,26.20
2018-12-31T01:08:54.987Z,28.42
2018-12-31T01:09:26.173Z,31.02
2018-12-31T01:09:57.341Z,28.38
2018-12-31T01:10:28.503Z,29.20
2018-12-31T01:10:59.660Z,30.68
2018-12-31T01:11:30.816Z,29.67
2018-12-31T01:12:02.019Z,29.42
2018-12-31T01:12:33.169Z,29.27
2018-12-31T01:13:05.865Z,28.55
2018-12-31T01:13:37.077Z,28.65
2018-12-31T01:14:08.227Z,27.52
2018-12-31T01:14:39.384Z,30.00
2018-12-31T01:15:10.529Z,29.07
2018-12-31T01:15:41.680Z,26.10
2018-12-31T01:16:12.836Z,27.60
2018-12-31T01:16:43.983Z,29.80
2018-12-31T01:17:15.137Z,29.85
2018-12-31T01:17:46.286Z,31.35
2018-12-31T01:18:17.447Z,31.33
2018-12-31T01:18:48.654Z,29.20
2018-12-31T01:19:19.811Z,29.35
2018-12-31T01:19:50.986Z,28.40
2018-12-31T01:20:22.141Z,30.32
2018-12-31T01:20:53.303Z,28.47
2018-12-31T01:21:24.455Z,29.50
2018-12-31T01:21:55.610Z,30.60
2018-12-31T01:22:26.764Z,30.97
2018-12-31T01:22:57.989Z,31.02
2018-12-31T01:23:29.142Z,27.02
2018-12-31T01:24:00.339Z,29.90
2018-12-31T01:24:31.496Z,29.42
2018-12-31T01:25:02.643Z,29.07
2018-12-31T01:25:33.801Z,30.57
2018-12-31T01:26:04.957Z,30.70
2018-12-31T01:26:37.303Z,30.75
2018-12-31T01:27:08.450Z,29.45
2018-12-31T01:27:39.599Z,28.42
2018-12-31T01:28:10.756Z,28.98
2018-12-31T01:28:41.902Z,30.25
2018-12-31T01:29:13.099Z,29.95
2018-12-31T01:29:44.253Z,30.92
2018-12-31T01:30:15.405Z,26.35
2018-12-31T01:30:46.567Z,31.15
2018-12-31T01:31:17.715Z,27.15
2018-12-31T01:31:48.859Z,31.33
2018-12-31T01:32:20.015Z,31.07
2018-12-31T01:32:51.206Z,29.27
2018-12-31T01:33:22.393Z,31.52
2018-12-31T01:33:53.543Z,31.30
2018-12-31T01:34:24.696Z,30.20
2018-12-31T01:34:55.893Z,28.87
2018-12-31T01:35:27.050Z,32.00
2018-12-31T01:35:58.202Z,29.60
2018-12-31T01:36:29.351Z,33.67
2018-12-31T01:37:00.502Z,30.82
2018-12-31T01:37:31.656Z,32.35
2018-12-31T01:38:02.855Z,32.05
2018-12-31T01:38:34.005Z,31.10
2018-12-31T01:39:05.159Z,32.08
2018-12-31T01:39:36.309Z,32.95
2018-12-31T01:40:07.459Z,32.42
2018-12-31T01:40:38.608Z,33.42
2018-12-31T01:41:09.773Z,31.60
2018-12-31T01:41:41.883Z,30.55
2018-12-31T01:42:13.123Z,32.40
2018-12-31T01:42:44.276Z,31.15
2018-12-31T01:43:15.432Z,33.28
2018-12-31T01:43:46.586Z,29.77
2018-12-31T01:44:17.739Z,32.17
2018-12-31T01:44:48.895Z,29.87
2018-12-31T01:45:20.090Z,29.57
2018-12-31T01:45:51.238Z,32.70
2018-12-31T01:46:22.454Z,30.55
2018-12-31T01:46:53.634Z,30.15
2018-12-31T01:47:24.793Z,32.53
2018-12-31T01:47:57.126Z,32.93
2018-12-31T01:48:28.281Z,30.08
2018-12-31T01:48:59.440Z,33.05
2018-12-31T01:49:30.652Z,31.27
2018-12-31T01:50:01.817Z,32.25
2018-12-31T01:50:32.962Z,32.40
2018-12-31T01:51:11.083Z,29.70
2018-12-31T01:51:36.982Z,30.75
2018-12-31T01:52:08.131Z,30.00
2018-12-31T01:52:39.283Z,30.37
2018-12-31T01:53:10.448Z,30.48
2018-12-31T01:53:41.603Z,27.98
2018-12-31T01:54:12.756Z,34.30
2018-12-31T01:54:43.966Z,31.48
2018-12-31T01:55:15.117Z,31.20
2018-12-31T01:55:46.272Z,30.02
2018-12-31T01:56:17.466Z,29.18
2018-12-31T01:56:48.617Z,29.20
2018-12-31T01:57:19.831Z,30.27
2018-12-31T01:57:50.976Z,30.00
2018-12-31T01:58:22.129Z,30.23
2018-12-31T01:58:53.284Z,31.10
2018-12-31T01:59:24.439Z,27.15
2018-12-31T01:59:55.592Z,29.65
2018-12-31T02:00:26.736Z,29.80
2018-12-31T02:00:57.892Z,28.67
2018-12-31T02:01:29.050Z,29.00
2018-12-31T02:02:00.214Z,30.82
2018-12-31T02:02:31.371Z,29.50
2018-12-31T02:03:02.566Z,28.17
2018-12-31T02:03:33.674Z,29.45
2018-12-31T02:04:04.831Z,32.20
2018-12-31T02:04:35.983Z,29.70
2018-12-31T02:05:07.592Z,29.18
2018-12-31T02:05:38.755Z,29.35
2018-12-31T02:06:09.914Z,31.00
2018-12-31T02:06:41.077Z,31.60
2018-12-31T02:07:12.232Z,31.17
2018-12-31T02:07:43.393Z,30.70
2018-12-31T02:08:14.545Z,30.25
2018-12-31T02:08:45.705Z,30.30
2018-12-31T02:09:16.863Z,29.75
2018-12-31T02:09:48.061Z,28.95
2018-12-31T02:10:19.221Z,29.82
2018-12-31T02:10:50.378Z,29.63
2018-12-31T02:11:21.525Z,29.67
2018-12-31T02:11:52.685Z,30.12
2018-12-31T02:12:23.899Z,28.55
2018-12-31T02:12:55.062Z,28.62
2018-12-31T02:13:26.250Z,29.10
2018-12-31T02:13:57.402Z,30.62
2018-12-31T02:14:28.564Z,29.52
2018-12-31T02:14:59.699Z,27.85
2018-12-31T02:15:30.934Z,30.23
2018-12-31T02:16:02.079Z,28.62
2018-12-31T02:16:33.231Z,29.25
2018-12-31T02:17:04.391Z,28.42
2018-12-31T02:17:35.586Z,27.87
2018-12-31T02:18:06.737Z,28.07
2018-12-31T02:18:37.892Z,28.62
2018-12-31T02:19:09.045Z,30.37
2018-12-31T02:19:40.219Z,27.45
2018-12-31T02:20:11.362Z,28.60
2018-12-31T02:20:42.507Z,30.27
2018-12-31T02:21:13.654Z,29.02
2018-12-31T02:21:44.851Z,29.07
2018-12-31T02:22:16.022Z,26.37
2018-12-31T02:22:47.172Z,28.67
2018-12-31T02:23:18.367Z,27.80
2018-12-31T02:23:49.519Z,30.20
2018-12-31T02:24:20.672Z,29.10
2018-12-31T02:24:51.826Z,27.00
2018-12-31T02:25:23.018Z,28.45
2018-12-31T02:25:54.169Z,28.67
2018-12-31T02:26:25.319Z,28.47
2018-12-31T02:26:56.463Z,26.50
2018-12-31T02:27:27.635Z,28.30
2018-12-31T02:27:58.784Z,27.15
2018-12-31T02:28:29.949Z,28.62
2018-12-31T02:29:01.204Z,28.62
2018-12-31T02:29:32.362Z,26.05
2018-12-31T02:30:03.529Z,30.55
2018-12-31T02:30:34.670Z,32.15
2018-12-31T02:31:05.834Z,26.23
2018-12-31T02:31:36.980Z,29.60
2018-12-31T02:32:08.139Z,25.23
2018-12-31T02:32:39.313Z,25.60
2018-12-31T02:33:10.508Z,27.10
2018-12-31T02:33:41.666Z,27.73
2018-12-31T02:34:12.836Z,25.60
2018-12-31T02:34:43.969Z,25.77
2018-12-31T02:35:15.129Z,26.65
2018-12-31T02:35:46.279Z,25.90
2018-12-31T02:36:17.436Z,26.80
2018-12-31T02:36:48.592Z,26.48
2018-12-31T02:37:19.790Z,26.93
2018-12-31T02:37:50.951Z,28.67
2018-12-31T02:38:22.091Z,25.30
2018-12-31T02:38:53.232Z,27.75
2018-12-31T02:39:24.387Z,27.05
2018-12-31T02:39:55.543Z,29.30
2018-12-31T02:40:26.701Z,26.10
2018-12-31T02:40:57.852Z,29.02
2018-12-31T02:41:29.014Z,28.92
2018-12-31T02:42:00.172Z,27.77
2018-12-31T02:42:31.374Z,30.10
2018-12-31T02:43:02.514Z,28.42
2018-12-31T02:43:33.694Z,27.67
2018-12-31T02:44:04.819Z,26.77
2018-12-31T02:44:35.977Z,28.25
2018-12-31T02:45:07.179Z,27.93
2018-12-31T02:45:38.342Z,28.55
2018-12-31T02:46:09.489Z,28.10
2018-12-31T02:46:40.677Z,29.20
2018-12-31T02:47:11.831Z,28.40
2018-12-31T02:47:42.988Z,29.27
2018-12-31T02:48:14.151Z,26.15
2018-12-31T02:48:45.307Z,27.35
2018-12-31T02:49:16.458Z,28.45
2018-12-31T02:49:47.658Z,28.55
2018-12-31T02:50:18.810Z,30.35
2018-12-31T02:50:49.962Z,29.63
2018-12-31T02:51:21.117Z,28.62
2018-12-31T02:51:52.266Z,31.50
2018-12-31T02:52:23.462Z,31.02
2018-12-31T02:52:54.622Z,28.10
2018-12-31T02:53:25.770Z,28.42
2018-12-31T02:53:56.924Z,27.05
2018-12-31T02:54:28.136Z,27.10
2018-12-31T02:54:59.317Z,29.42
2018-12-31T02:55:30.455Z,29.55
2018-12-31T02:56:01.607Z,28.42
2018-12-31T02:56:32.840Z,28.50
2018-12-31T02:57:03.969Z,27.93
2018-12-31T02:57:35.127Z,26.62
2018-12-31T02:58:06.283Z,32.17
2018-12-31T02:58:37.436Z,28.15
2018-12-31T02:59:08.589Z,28.50
2018-12-31T02:59:39.798Z,28.42
2018-12-31T03:00:10.946Z,27.67
2018-12-31T03:00:42.109Z,29.02
2018-12-31T03:01:13.258Z,31.27
2018-12-31T03:01:44.409Z,28.77
2018-12-31T03:02:15.562Z,29.23
2018-12-31T03:02:46.706Z,29.35
2018-12-31T03:03:17.865Z,27.37
2018-12-31T03:03:49.032Z,29.07
2018-12-31T03:04:20.227Z,27.50
2018-12-31T03:04:51.401Z,28.50
2018-12-31T03:05:22.599Z,31.23
2018-12-31T03:05:53.756Z,29.70
2018-12-31T03:06:24.919Z,28.40
2018-12-31T03:06:56.071Z,27.95
2018-12-31T03:07:27.270Z,28.47
2018-12-31T03:07:58.413Z,31.80
2018-12-31T03:08:29.566Z,35.05
2018-12-31T03:09:00.711Z,33.58
2018-12-31T03:09:31.872Z,32.65
2018-12-31T03:10:03.034Z,34.98
2018-12-31T03:10:34.190Z,36.55
2018-12-31T03:11:05.339Z,31.52
2018-12-31T03:11:36.499Z,32.73
2018-12-31T03:12:07.652Z,35.85
2018-12-31T03:12:38.840Z,34.85
2018-12-31T03:13:09.995Z,33.73
2018-12-31T03:13:41.164Z,31.85
2018-12-31T03:14:12.318Z,32.98
2018-12-31T03:14:43.461Z,35.15
2018-12-31T03:15:14.617Z,35.28
2018-12-31T03:15:45.773Z,32.05
2018-12-31T03:16:18.889Z,35.92
2018-12-31T03:16:50.007Z,31.60
2018-12-31T03:17:21.163Z,35.50
2018-12-31T03:17:52.314Z,37.35
2018-12-31T03:18:23.470Z,34.00
2018-12-31T03:18:54.679Z,32.30
2018-12-31T03:19:25.822Z,32.67
2018-12-31T03:19:56.969Z,31.20
2018-12-31T03:20:28.117Z,33.80
2018-12-31T03:20:59.275Z,32.50
2018-12-31T03:21:30.434Z,31.57
2018-12-31T03:22:01.580Z,31.90
2018-12-31T03:22:32.735Z,32.83
2018-12-31T03:23:05.982Z,32.30
2018-12-31T03:23:37.141Z,29.55
2018-12-31T03:24:08.325Z,32.20
2018-12-31T03:24:39.467Z,32.03
2018-12-31T03:25:10.653Z,30.90
2018-12-31T03:25:41.850Z,31.20
2018-12-31T03:26:12.999Z,33.35
2018-12-31T03:26:44.155Z,34.08
2018-12-31T03:27:15.311Z,31.93
2018-12-31T03:27:46.459Z,33.02
2018-12-31T03:28:17.613Z,32.23
2018-12-31T03:28:48.760Z,33.40
2018-12-31T03:29:19.952Z,32.55
2018-12-31T03:29:51.107Z,31.65
2018-12-31T03:30:22.274Z,34.70
2018-12-31T03:30:53.412Z,33.70
2018-12-31T03:31:24.723Z,30.77
2018-12-31T03:31:55.949Z,30.35
2018-12-31T03:32:27.122Z,31.45
2018-12-31T03:32:58.262Z,32.80
2018-12-31T03:33:29.418Z,32.55
2018-12-31T03:34:00.578Z,31.02
2018-12-31T03:34:31.753Z,32.30
2018-12-31T03:35:02.886Z,31.75
2018-12-31T03:35:34.044Z,31.42
2018-12-31T03:36:05.179Z,34.48
2018-12-31T03:36:36.349Z,33.65
2018-12-31T03:37:07.507Z,32.05
2018-12-31T03:37:38.660Z,31.33
2018-12-31T03:38:09.862Z,33.42
2018-12-31T03:38:41.022Z,33.60
2018-12-31T03:39:12.174Z,33.67
2018-12-31T03:39:43.321Z,33.28
2018-12-31T03:40:14.477Z,34.03
2018-12-31T03:40:45.627Z,34.85
2018-12-31T03:41:16.827Z,32.10
2018-12-31T03:41:48.002Z,30.25
2018-12-31T03:42:19.147Z,36.60
2018-12-31T03:42:50.307Z,32.70
2018-12-31T03:43:21.510Z,32.53
2018-12-31T03:43:52.658Z,33.83
2018-12-31T03:44:23.807Z,33.73
2018-12-31T03:44:55.004Z,31.23
2018-12-31T03:45:26.154Z,33.92
2018-12-31T03:45:57.311Z,31.70
2018-12-31T03:46:28.481Z,33.00
2018-12-31T03:46:59.640Z,33.92
2018-12-31T03:47:30.790Z,33.53
2018-12-31T03:48:01.992Z,33.58
2018-12-31T03:48:33.157Z,33.88
2018-12-31T03:49:04.297Z,33.55
2018-12-31T03:49:35.467Z,32.40
2018-12-31T03:50:06.621Z,32.98
2018-12-31T03:50:37.777Z,32.20
2018-12-31T03:51:08.936Z,34.70
2018-12-31T03:51:40.086Z,33.98
2018-12-31T03:52:11.275Z,33.28
2018-12-31T03:52:42.463Z,34.98
2018-12-31T03:53:13.623Z,32.08
2018-12-31T03:53:44.783Z,34.58
2018-12-31T03:54:15.959Z,35.73
2018-12-31T03:54:47.129Z,36.88
2018-12-31T03:55:18.307Z,34.92
2018-12-31T03:55:49.529Z,34.58
2018-12-31T03:56:20.696Z,34.73
2018-12-31T03:56:51.861Z,33.40
2018-12-31T03:57:23.008Z,36.20
2018-12-31T03:57:54.215Z,33.85
2018-12-31T03:58:25.422Z,34.63
2018-12-31T03:58:56.572Z,34.13
2018-12-31T03:59:27.745Z,34.75
2018-12-31T03:59:58.979Z,36.53
2018-12-31T04:00:30.120Z,34.40
2018-12-31T04:01:01.262Z,32.83
2018-12-31T04:01:32.422Z,33.15
2018-12-31T04:02:03.579Z,34.15
2018-12-31T04:02:34.728Z,35.33
2018-12-31T04:03:05.880Z,33.80
2018-12-31T04:03:37.037Z,34.03
2018-12-31T04:04:08.192Z,35.48
2018-12-31T04:04:39.339Z,32.30
2018-12-31T04:05:10.488Z,33.58
2018-12-31T04:05:41.700Z,33.28
2018-12-31T04:06:12.863Z,30.88
2018-12-31T04:06:44.029Z,33.92
2018-12-31T04:07:15.182Z,34.43
2018-12-31T04:07:52.979Z,34.13
2018-12-31T04:08:19.212Z,35.28
2018-12-31T04:08:50.361Z,32.00
2018-12-31T04:09:21.511Z,35.73
2018-12-31T04:09:52.669Z,32.90
2018-12-31T04:10:23.823Z,35.65
2018-12-31T04:10:55.023Z,31.23
2018-12-31T04:11:26.181Z,32.95
2018-12-31T04:11:57.320Z,33.42
2018-12-31T04:12:28.495Z,33.10
2018-12-31T04:12:59.655Z,34.35
2018-12-31T04:13:30.805Z,36.35
2018-12-31T04:14:01.976Z,36.73
2018-12-31T04:14:33.123Z,34.30
2018-12-31T04:15:04.325Z,35.28
2018-12-31T04:15:35.478Z,33.20
2018-12-31T04:16:06.636Z,33.70
2018-12-31T04:16:37.789Z,33.02
2018-12-31T04:17:08.948Z,34.27
2018-12-31T04:17:40.103Z,37.42
2018-12-31T04:18:11.266Z,32.80
2018-12-31T04:18:42.441Z,32.20
2018-12-31T04:19:13.594Z,34.65
2018-12-31T04:19:44.752Z,30.27
2018-12-31T04:20:15.942Z,33.00
2018-12-31T04:20:47.092Z,30.37
2018-12-31T04:21:18.257Z,33.38
2018-12-31T04:21:49.426Z,32.45
2018-12-31T04:22:20.647Z,31.45
2018-12-31T04:22:51.811Z,34.33
2018-12-31T04:23:22.967Z,31.40
2018-12-31T04:23:54.114Z,33.00
2018-12-31T04:24:25.269Z,32.75
2018-12-31T04:24:56.465Z,31.85
2018-12-31T04:25:27.619Z,31.85
2018-12-31T04:25:58.773Z,34.03
2018-12-31T04:26:29.916Z,35.83
2018-12-31T04:27:01.074Z,31.85
2018-12-31T04:27:32.246Z,31.40
2018-12-31T04:28:03.385Z,33.30
2018-12-31T04:28:34.529Z,36.15
2018-12-31T04:29:05.683Z,34.55
2018-12-31T04:29:36.902Z,31.70
2018-12-31T04:30:08.121Z,35.05
2018-12-31T04:30:39.274Z,33.38
2018-12-31T04:31:10.421Z,33.02
2018-12-31T04:31:41.570Z,33.20
2018-12-31T04:32:12.728Z,33.40
2018-12-31T04:32:43.887Z,33.10
2018-12-31T04:33:15.039Z,34.88
2018-12-31T04:33:46.184Z,34.43
2018-12-31T04:34:17.344Z,32.65
2018-12-31T04:34:48.568Z,31.25
2018-12-31T04:35:19.727Z,32.90
2018-12-31T04:35:50.888Z,32.88
2018-12-31T04:36:22.037Z,36.35
2018-12-31T04:36:53.192Z,31.27
2018-12-31T04:37:24.400Z,36.03
2018-12-31T04:37:55.553Z,33.90
2018-12-31T04:38:26.741Z,32.85
2018-12-31T04:38:57.899Z,33.50
2018-12-31T04:39:29.056Z,35.23
2018-12-31T04:40:00.322Z,29.98
2018-12-31T04:40:31.488Z,33.95
2018-12-31T04:41:02.644Z,35.45
2018-12-31T04:41:33.796Z,34.43
2018-12-31T04:42:04.956Z,34.27
2018-12-31T04:42:36.166Z,32.53
2018-12-31T04:43:07.322Z,37.73
2018-12-31T04:43:38.470Z,31.30
2018-12-31T04:44:09.694Z,34.50
2018-12-31T04:44:40.835Z,32.55
2018-12-31T04:45:11.992Z,34.92
2018-12-31T04:45:43.154Z,32.28
2018-12-31T04:46:14.314Z,33.50
2018-12-31T04:46:45.460Z,31.52
2018-12-31T04:47:16.621Z,34.53
2018-12-31T04:47:47.838Z,36.28
2018-12-31T04:48:18.989Z,32.83
2018-12-31T04:48:50.143Z,32.55
2018-12-31T04:49:21.310Z,32.42
2018-12-31T04:49:52.466Z,32.85
2018-12-31T04:50:23.624Z,34.80
2018-12-31T04:50:54.782Z,34.58
2018-12-31T04:51:25.931Z,34.08
2018-12-31T04:51:57.088Z,31.62
2018-12-31T04:52:28.292Z,32.98
2018-12-31T04:52:59.446Z,31.97
2018-12-31T04:53:30.594Z,37.00
2018-12-31T04:54:01.743Z,30.90
2018-12-31T04:54:32.899Z,29.77
2018-12-31T04:55:04.049Z,33.58
2018-12-31T04:55:35.202Z,33.20
2018-12-31T04:56:06.358Z,33.85
2018-12-31T04:56:37.548Z,32.98
2018-12-31T04:57:08.694Z,32.35
2018-12-31T04:57:39.857Z,35.17
2018-12-31T04:58:11.057Z,32.50
2018-12-31T04:58:42.217Z,32.80
2018-12-31T04:59:13.376Z,34.43
2018-12-31T04:59:44.532Z,35.20
2018-12-31T05:00:15.686Z,32.28
2018-12-31T05:00:46.893Z,31.95
2018-12-31T05:01:18.057Z,34.92
2018-12-31T05:01:49.218Z,31.62
2018-12-31T05:02:20.405Z,31.33
2018-12-31T05:02:51.560Z,31.55
2018-12-31T05:03:22.765Z,33.45
2018-12-31T05:03:53.908Z,35.23
2018-12-31T05:04:25.113Z,31.93
2018-12-31T05:04:56.255Z,34.43
2018-12-31T05:05:27.407Z,32.98
2018-12-31T05:05:58.552Z,36.80
2018-12-31T05:06:29.704Z,33.30
2018-12-31T05:07:01.123Z,33.70
2018-12-31T05:07:32.278Z,33.35
2018-12-31T05:08:03.429Z,34.65
2018-12-31T05:08:34.658Z,29.48
2018-12-31T05:09:05.814Z,33.28
2018-12-31T05:09:36.977Z,31.02
2018-12-31T05:10:08.132Z,31.50
2018-12-31T05:10:39.287Z,31.55
2018-12-31T05:11:10.442Z,32.60
2018-12-31T05:11:41.590Z,32.98
2018-12-31T05:12:14.782Z,31.02
2018-12-31T05:12:45.681Z,33.78
2018-12-31T05:13:16.883Z,37.85
2018-12-31T05:13:48.037Z,38.90
2018-12-31T05:14:19.189Z,44.53
2018-12-31T05:14:50.352Z,44.93
2018-12-31T05:15:21.503Z,36.40
2018-12-31T05:15:52.677Z,39.70
2018-12-31T05:16:23.825Z,41.00
2018-12-31T05:16:54.970Z,43.85
2018-12-31T05:17:26.114Z,42.03
2018-12-31T05:17:57.258Z,44.60
2018-12-31T05:18:28.456Z,45.38
2018-12-31T05:18:59.605Z,43.55
2018-12-31T05:19:30.754Z,42.83
2018-12-31T05:20:01.908Z,40.67
2018-12-31T05:20:33.055Z,39.40
2018-12-31T05:21:04.214Z,39.60
2018-12-31T05:21:35.370Z,36.75
2018-12-31T05:22:06.527Z,35.35
2018-12-31T05:22:37.676Z,34.67
2018-12-31T05:23:08.827Z,36.05
2018-12-31T05:23:40.032Z,36.33
2018-12-31T05:24:11.185Z,34.63
2018-12-31T05:24:42.345Z,35.00
2018-12-31T05:25:13.528Z,35.95
2018-12-31T05:25:46.082Z,34.40
2018-12-31T05:26:17.266Z,34.85
2018-12-31T05:26:48.420Z,37.10
2018-12-31T05:27:19.575Z,36.35
2018-12-31T05:27:50.731Z,36.63
2018-12-31T05:28:21.916Z,35.90
2018-12-31T05:28:53.073Z,37.83
2018-12-31T05:29:24.224Z,32.42
2018-12-31T05:29:55.385Z,32.38
2018-12-31T05:30:26.549Z,34.33
2018-12-31T05:30:57.697Z,35.68
2018-12-31T05:31:28.850Z,33.53
2018-12-31T05:32:00.026Z,33.90
2018-12-31T05:32:34.165Z,37.35
2018-12-31T05:33:05.617Z,35.95
2018-12-31T05:33:36.784Z,33.05
2018-12-31T05:34:07.991Z,36.05
2018-12-31T05:34:39.134Z,35.13
2018-12-31T05:35:10.289Z,33.67
2018-12-31T05:35:41.443Z,34.35
2018-12-31T05:36:12.634Z,33.28
2018-12-31T05:36:43.789Z,35.33
2018-12-31T05:37:14.937Z,32.88
2018-12-31T05:37:46.092Z,34.75
2018-12-31T05:38:17.249Z,36.23
2018-12-31T05:38:48.407Z,33.15
2018-12-31T05:39:19.610Z,36.73
2018-12-31T05:39:50.759Z,32.03
2018-12-31T05:40:21.933Z,34.65
2018-12-31T05:40:53.083Z,35.52
2018-12-31T05:41:24.248Z,34.38
2018-12-31T05:41:55.407Z,35.78
2018-12-31T05:42:26.574Z,30.37
2018-12-31T05:42:57.723Z,35.13
2018-12-31T05:43:28.879Z,32.80
2018-12-31T05:44:00.024Z,33.92
2018-12-31T05:44:31.242Z,36.68
2018-12-31T05:45:02.361Z,33.70
2018-12-31T05:45:33.515Z,33.50
2018-12-31T05:46:04.677Z,33.40
2018-12-31T05:46:35.837Z,33.45
2018-12-31T05:47:07.006Z,31.55
2018-12-31T05:47:38.203Z,35.30
2018-12-31T05:48:09.355Z,33.48
2018-12-31T05:48:40.563Z,32.93
2018-12-31T05:49:11.708Z,33.18
2018-12-31T05:49:42.891Z,32.48
2018-12-31T05:50:14.099Z,36.10
2018-12-31T05:50:46.716Z,33.20
2018-12-31T05:51:18.930Z,32.70
2018-12-31T05:51:50.124Z,35.92
2018-12-31T05:52:21.284Z,33.30
2018-12-31T05:52:52.434Z,31.80
2018-12-31T05:53:23.408Z,34.78
2018-12-31T05:53:54.578Z,31.65
2018-12-31T05:54:25.736Z,32.63
2018-12-31T05:54:56.905Z,32.83
2018-12-31T05:55:28.067Z,33.85
2018-12-31T05:55:59.217Z,36.50
2018-12-31T05:56:30.414Z,34.55
2018-12-31T05:57:01.566Z,37.08
2018-12-31T05:57:32.722Z,33.55
2018-12-31T05:58:03.926Z,34.08
2018-12-31T05:58:35.071Z,34.23
2018-12-31T05:59:08.348Z,36.17
2018-12-31T05:59:39.519Z,34.90
2018-12-31T06:00:10.656Z,34.30
2018-12-31T06:00:42.214Z,37.30
2018-12-31T06:01:13.352Z,37.50
2018-12-31T06:01:44.549Z,35.52
2018-12-31T06:02:15.702Z,35.52
2018-12-31T06:02:46.860Z,38.15
2018-12-31T06:03:18.011Z,35.15
2018-12-31T06:03:49.168Z,36.93
2018-12-31T06:04:20.377Z,38.88
2018-12-31T06:04:51.560Z,36.75
2018-12-31T06:05:22.769Z,36.83
2018-12-31T06:05:54.337Z,35.25
2018-12-31T06:06:25.508Z,36.50
2018-12-31T06:06:56.663Z,36.17
2018-12-31T06:07:27.824Z,35.28
2018-12-31T06:07:58.977Z,34.98
2018-12-31T06:08:30.182Z,35.30
2018-12-31T06:09:01.328Z,36.08
2018-12-31T06:09:32.495Z,35.10
2018-12-31T06:10:03.654Z,32.70
2018-12-31T06:10:34.895Z,34.70
2018-12-31T06:11:06.042Z,37.10
2018-12-31T06:11:37.196Z,36.40
2018-12-31T06:12:08.349Z,36.20
2018-12-31T06:12:39.517Z,35.03
2018-12-31T06:13:10.673Z,35.50
2018-12-31T06:13:41.840Z,34.53
2018-12-31T06:14:13.000Z,32.35
2018-12-31T06:14:44.172Z,34.05
2018-12-31T06:15:15.319Z,35.58
2018-12-31T06:15:46.517Z,35.88
2018-12-31T06:16:17.675Z,34.08
2018-12-31T06:16:48.838Z,33.80
2018-12-31T06:17:19.985Z,32.93
2018-12-31T06:17:51.142Z,32.85
2018-12-31T06:18:22.297Z,33.55
2018-12-31T06:18:53.457Z,33.00
2018-12-31T06:19:24.687Z,33.50
2018-12-31T06:19:55.931Z,36.53
2018-12-31T06:20:27.067Z,33.70
2018-12-31T06:20:58.212Z,35.50
2018-12-31T06:21:29.398Z,33.80
2018-12-31T06:22:00.533Z,36.42
2018-12-31T06:22:31.679Z,33.80
2018-12-31T06:23:02.831Z,35.63
2018-12-31T06:23:33.989Z,35.55
2018-12-31T06:24:05.145Z,33.75
2018-12-31T06:24:36.363Z,33.70
2018-12-31T06:25:07.505Z,34.80
2018-12-31T06:25:38.686Z,34.27
2018-12-31T06:26:09.840Z,32.85
2018-12-31T06:26:40.989Z,34.25
2018-12-31T06:27:12.195Z,35.88
2018-12-31T06:27:43.352Z,33.78
2018-12-31T06:28:14.555Z,34.33
2018-12-31T06:28:45.718Z,31.73
2018-12-31T06:29:16.870Z,33.20
2018-12-31T06:29:48.027Z,33.18
2018-12-31T06:30:19.180Z,33.33
2018-12-31T06:30:50.332Z,32.55
2018-12-31T06:31:21.502Z,33.60
2018-12-31T06:31:52.643Z,34.73
2018-12-31T06:32:23.796Z,34.63
2018-12-31T06:32:54.975Z,35.40
2018-12-31T06:33:26.168Z,37.10
2018-12-31T06:33:57.319Z,33.55
2018-12-31T06:34:28.476Z,32.33
2018-12-31T06:34:59.628Z,34.25
2018-12-31T06:35:30.780Z,35.33
2018-12-31T06:36:01.927Z,32.93
2018-12-31T06:36:33.083Z,32.70
2018-12-31T06:37:04.253Z,33.70
2018-12-31T06:37:35.407Z,33.42
2018-12-31T06:38:06.563Z,33.70
2018-12-31T06:38:37.769Z,33.65
2018-12-31T06:39:08.919Z,33.98
2018-12-31T06:39:40.063Z,33.90
2018-12-31T06:40:11.210Z,32.58
2018-12-31T06:40:42.361Z,34.73
2018-12-31T06:41:13.603Z,34.65
2018-12-31T06:41:44.722Z,30.72